Time;durP1;ratioP1;P1;durP2;ratioP2;P2;SDS_P1;SDS_P2;PMS_P1;PMS_P2;Temp;Humidity;BMP_temperature;BMP_pressure;BME280_temperature;BME280_humidity;BME280_pressure;Samples;Min_cycle;Max_cycle;Signal;HPM_P1;HPM_P2
2021/03/15 00:01:09;;;;;;;13.03;3.43;;;7.90;99.90;;;;;;5039965;28;20676;-82
2021/03/15 00:03:36;;;;;;;13.00;2.70;;;7.90;99.90;;;;;;5054581;28;20202;-81
2021/03/15 00:06:03;;;;;;;14.50;2.57;;;7.80;99.90;;;;;;5051448;28;20233;-81
2021/03/15 00:08:30;;;;;;;13.37;3.20;;;7.90;99.90;;;;;;5052227;28;20284;-81
2021/03/15 00:10:57;;;;;;;13.07;3.10;;;7.90;99.90;;;;;;5053871;28;20228;-81
2021/03/15 00:13:24;;;;;;;12.70;3.53;;;7.90;99.90;;;;;;5054388;28;20640;-82
2021/03/15 00:15:53;;;;;;;16.80;3.40;;;7.80;99.90;;;;;;5054107;28;20294;-81
2021/03/15 00:18:20;;;;;;;11.77;2.60;;;7.90;99.90;;;;;;5052292;28;20265;-81
2021/03/15 00:20:47;;;;;;;10.87;2.77;;;7.90;99.90;;;;;;5052821;28;20270;-81
2021/03/15 00:23:14;;;;;;;16.00;3.40;;;7.90;99.90;;;;;;5038712;28;20659;-81
2021/03/15 00:25:41;;;;;;;14.40;3.80;;;8.00;99.90;;;;;;5044126;28;20685;-81
2021/03/15 00:28:07;;;;;;;14.37;3.40;;;8.00;99.90;;;;;;5053555;28;20251;-81
2021/03/15 00:30:34;;;;;;;13.20;3.90;;;8.10;99.90;;;;;;5053466;28;20239;-81
2021/03/15 00:33:02;;;;;;;13.90;3.30;;;8.10;99.90;;;;;;5053439;28;20281;-81
2021/03/15 00:35:29;;;;;;;12.67;3.07;;;8.10;99.90;;;;;;5053777;28;20244;-81
2021/03/15 00:37:55;;;;;;;14.13;2.80;;;8.10;99.90;;;;;;5052588;28;20931;-81
2021/03/15 00:40:23;;;;;;;18.00;3.73;;;8.10;99.90;;;;;;5051220;28;20233;-81
2021/03/15 00:42:51;;;;;;;9.67;2.73;;;8.20;99.90;;;;;;5052720;28;20260;-81
2021/03/15 00:45:20;;;;;;;19.57;2.83;;;8.20;99.90;;;;;;5053414;28;20743;-80
2021/03/15 00:47:47;;;;;;;16.30;3.40;;;8.20;99.90;;;;;;5053463;28;20298;-81
2021/03/15 00:50:19;;;;;;;12.77;2.93;;;8.20;99.90;;;;;;5034032;28;20238;-81
2021/03/15 00:52:46;;;;;;;17.77;2.90;;;8.20;99.90;;;;;;5033625;28;20238;-81
2021/03/15 00:55:13;;;;;;;15.87;3.23;;;8.30;99.90;;;;;;5041844;28;20228;-81
2021/03/15 00:57:39;;;;;;;11.80;2.60;;;8.30;99.90;;;;;;5045163;28;20300;-81
2021/03/15 01:00:09;;;;;;;16.40;3.73;;;8.30;99.90;;;;;;5052415;28;20704;-81
2021/03/15 01:02:36;;;;;;;9.33;2.60;;;8.40;99.90;;;;;;5050754;28;20261;-81
2021/03/15 01:05:04;;;;;;;19.13;3.87;;;8.40;99.90;;;;;;5035201;28;20625;-81
2021/03/15 01:07:31;;;;;;;14.17;2.70;;;8.40;99.90;;;;;;5052864;28;20231;-80
2021/03/15 01:09:58;;;;;;;18.30;3.37;;;8.50;99.90;;;;;;5053217;28;20202;-80
2021/03/15 01:12:25;;;;;;;21.90;3.87;;;8.50;99.90;;;;;;5036114;28;20645;-81
2021/03/15 01:14:51;;;;;;;17.80;3.60;;;8.50;99.90;;;;;;5033535;28;20304;-81
2021/03/15 01:17:18;;;;;;;15.60;3.27;;;8.50;99.90;;;;;;5051891;28;20795;-80
2021/03/15 01:19:44;;;;;;;15.53;3.33;;;8.50;99.90;;;;;;5052878;28;20684;-80
2021/03/15 01:22:12;;;;;;;13.80;3.17;;;8.50;99.90;;;;;;5047533;28;20255;-81
2021/03/15 01:24:39;;;;;;;13.33;3.37;;;8.50;99.90;;;;;;5039711;28;20240;-80
2021/03/15 01:27:06;;;;;;;15.57;3.27;;;8.50;99.90;;;;;;5052731;28;20681;-80
2021/03/15 01:29:33;;;;;;;14.93;3.43;;;8.50;99.90;;;;;;5052839;28;20233;-81
2021/03/15 01:32:00;;;;;;;11.63;3.20;;;8.50;99.90;;;;;;5053032;28;20228;-80
2021/03/15 01:34:26;;;;;;;14.20;3.13;;;8.50;99.90;;;;;;5052280;28;20241;-81
2021/03/15 01:36:53;;;;;;;13.97;3.97;;;8.50;99.90;;;;;;5049701;28;20245;-80
2021/03/15 01:39:19;;;;;;;13.23;3.40;;;8.50;99.90;;;;;;5032286;28;20705;-80
2021/03/15 01:41:47;;;;;;;15.50;3.37;;;8.50;99.90;;;;;;5040702;28;20219;-80
2021/03/15 01:44:14;;;;;;;13.30;3.27;;;8.60;99.90;;;;;;5051980;28;20198;-80
2021/03/15 01:46:40;;;;;;;15.63;3.40;;;8.50;99.90;;;;;;5052194;28;20237;-80
2021/03/15 01:49:06;;;;;;;13.43;3.20;;;8.60;99.90;;;;;;5052456;28;20242;-80
2021/03/15 01:51:33;;;;;;;15.20;3.77;;;8.60;99.90;;;;;;5051686;28;20721;-80
2021/03/15 01:53:59;;;;;;;15.07;3.63;;;8.60;99.90;;;;;;5052068;28;20689;-81
2021/03/15 01:56:27;;;;;;;18.23;3.97;;;8.60;99.90;;;;;;5051892;28;20201;-80
2021/03/15 01:58:54;;;;;;;15.27;3.67;;;8.60;99.90;;;;;;5052549;28;20230;-80
2021/03/15 02:01:21;;;;;;;14.87;3.50;;;8.60;99.90;;;;;;5050971;28;20569;-80
2021/03/15 02:03:48;;;;;;;19.17;3.60;;;8.60;99.90;;;;;;5052659;28;20577;-81
2021/03/15 02:06:14;;;;;;;11.10;3.30;;;8.60;99.90;;;;;;5049304;28;20210;-81
2021/03/15 02:08:40;;;;;;;14.37;3.47;;;8.60;99.90;;;;;;5032570;28;20230;-80
2021/03/15 02:11:16;;;;;;;13.73;3.47;;;8.60;99.90;;;;;;5050395;28;20749;-81
2021/03/15 02:14:02;;;;;;;13.07;3.77;;;8.60;99.90;;;;;;5051561;28;20230;-80
2021/03/15 02:16:39;;;;;;;17.90;3.77;;;8.60;99.90;;;;;;5041453;28;20213;-81
2021/03/15 02:19:45;;;;;;;19.90;3.73;;;8.60;99.90;;;;;;5042513;28;20293;-81
2021/03/15 02:22:34;;;;;;;14.97;4.00;;;8.60;99.90;;;;;;5031223;28;20261;-80
2021/03/15 02:25:25;;;;;;;18.67;3.73;;;8.60;99.90;;;;;;5044509;28;20240;-81
2021/03/15 02:28:23;;;;;;;12.07;3.27;;;8.60;99.90;;;;;;5044532;28;20211;-81
2021/03/15 02:31:31;;;;;;;13.17;4.10;;;8.60;99.90;;;;;;5044231;28;20248;-80
2021/03/15 02:34:41;;;;;;;14.83;3.73;;;8.60;99.90;;;;;;5052175;28;20201;-80
2021/03/15 02:37:11;;;;;;;15.13;3.30;;;8.60;99.90;;;;;;5046272;28;20226;-80
2021/03/15 02:39:41;;;;;;;19.43;3.73;;;8.60;99.90;;;;;;5048067;28;20267;-81
2021/03/15 02:42:12;;;;;;;17.67;3.60;;;8.60;99.90;;;;;;5040383;28;20264;-80
2021/03/15 02:44:40;;;;;;;14.87;3.23;;;8.70;99.90;;;;;;5051515;28;20242;-81
2021/03/15 02:47:12;;;;;;;15.73;3.33;;;8.70;99.90;;;;;;5051909;28;20243;-80
2021/03/15 02:49:40;;;;;;;18.50;3.43;;;8.70;99.90;;;;;;5051525;28;20241;-80
2021/03/15 02:52:08;;;;;;;17.97;3.70;;;8.70;99.90;;;;;;5045943;28;20197;-80
2021/03/15 02:54:36;;;;;;;15.97;3.10;;;8.70;99.90;;;;;;5051623;28;20234;-80
2021/03/15 02:57:05;;;;;;;14.93;3.47;;;8.70;99.90;;;;;;5051808;28;20240;-80
2021/03/15 02:59:34;;;;;;;17.13;3.90;;;8.80;99.90;;;;;;5051496;28;20708;-80
2021/03/15 03:02:01;;;;;;;18.77;3.40;;;8.80;99.90;;;;;;5051577;28;20261;-80
2021/03/15 03:04:30;;;;;;;18.10;3.50;;;8.80;99.90;;;;;;5051537;28;20686;-80
2021/03/15 03:06:57;;;;;;;19.67;3.63;;;8.80;99.90;;;;;;5052478;28;20245;-80
2021/03/15 03:09:26;;;;;;;20.03;3.60;;;8.90;99.90;;;;;;5037351;28;20232;-80
2021/03/15 03:11:52;;;;;;;13.17;3.33;;;8.90;99.90;;;;;;5055227;28;20241;-80
2021/03/15 03:14:21;;;;;;;14.53;3.03;;;8.90;99.90;;;;;;5055594;28;20392;-80
2021/03/15 03:16:49;;;;;;;11.50;2.80;;;8.90;99.90;;;;;;5051719;28;20316;-81
2021/03/15 03:19:17;;;;;;;18.47;3.40;;;8.90;99.90;;;;;;5049087;28;20675;-81
2021/03/15 03:21:46;;;;;;;10.03;2.87;;;8.90;99.90;;;;;;5054886;28;20265;-80
2021/03/15 03:24:15;;;;;;;13.57;3.17;;;8.90;99.90;;;;;;5054622;28;20231;-80
2021/03/15 03:26:43;;;;;;;14.73;3.13;;;8.90;99.90;;;;;;5055215;28;20235;-80
2021/03/15 03:29:11;;;;;;;16.17;3.63;;;9.00;99.90;;;;;;5055109;28;20196;-80
2021/03/15 03:31:42;;;;;;;12.67;3.03;;;9.00;99.90;;;;;;5055099;28;20732;-80
2021/03/15 03:34:09;;;;;;;11.07;3.23;;;9.00;99.90;;;;;;5054303;28;20241;-80
2021/03/15 03:36:36;;;;;;;11.40;3.03;;;9.00;99.90;;;;;;5055183;28;20203;-80
2021/03/15 03:39:05;;;;;;;9.07;2.70;;;9.00;99.90;;;;;;5049725;28;20608;-80
2021/03/15 03:41:32;;;;;;;17.97;3.50;;;9.00;99.90;;;;;;5054258;28;20292;-80
2021/03/15 03:43:59;;;;;;;15.87;3.40;;;9.00;99.90;;;;;;5054593;28;20193;-80
2021/03/15 03:46:26;;;;;;;13.90;2.90;;;9.00;99.90;;;;;;5054352;28;20755;-81
2021/03/15 03:48:53;;;;;;;10.60;3.10;;;9.00;99.90;;;;;;5037260;28;20294;-81
2021/03/15 03:51:22;;;;;;;12.47;3.03;;;9.00;99.90;;;;;;5035228;28;20239;-80
2021/03/15 03:53:55;;;;;;;11.00;3.13;;;9.00;99.90;;;;;;5034354;28;20301;-82
2021/03/15 03:56:25;;;;;;;12.50;2.87;;;8.90;99.90;;;;;;5034892;28;20817;-81
2021/03/15 03:58:55;;;;;;;15.10;2.83;;;9.00;99.90;;;;;;5034752;28;20247;-81
2021/03/15 04:01:28;;;;;;;12.80;3.03;;;9.00;99.90;;;;;;5034400;28;20242;-82
2021/03/15 04:03:57;;;;;;;16.27;3.93;;;9.00;99.90;;;;;;5034198;28;20239;-80
2021/03/15 04:06:28;;;;;;;15.87;3.63;;;9.10;99.90;;;;;;5034865;28;20239;-80
2021/03/15 04:08:59;;;;;;;16.20;3.17;;;9.10;99.90;;;;;;5034256;28;20243;-82
2021/03/15 04:11:30;;;;;;;12.90;3.10;;;9.10;99.90;;;;;;5045391;28;20228;-81
2021/03/15 04:13:58;;;;;;;12.63;3.27;;;9.10;99.90;;;;;;5053509;28;20757;-82
2021/03/15 04:16:30;;;;;;;17.53;3.43;;;9.10;99.90;;;;;;5045535;28;20554;-82
2021/03/15 04:18:59;;;;;;;14.07;3.20;;;9.20;99.90;;;;;;5042145;28;20234;-81
2021/03/15 04:21:29;;;;;;;15.07;3.83;;;9.20;99.90;;;;;;5053725;28;20258;-82
2021/03/15 04:23:57;;;;;;;13.60;3.43;;;9.20;99.90;;;;;;5053916;28;20239;-80
2021/03/15 04:26:25;;;;;;;16.30;3.57;;;9.30;99.90;;;;;;5043533;28;20238;-82
2021/03/15 04:28:53;;;;;;;14.47;3.80;;;9.30;99.90;;;;;;5034566;28;20240;-79
2021/03/15 04:31:21;;;;;;;16.13;3.83;;;9.40;99.90;;;;;;5033902;28;20656;-81
2021/03/15 04:33:50;;;;;;;16.07;3.90;;;9.40;99.90;;;;;;5039688;28;20232;-82
2021/03/15 04:36:19;;;;;;;15.93;3.43;;;9.40;99.90;;;;;;5053001;28;20331;-82
2021/03/15 04:38:46;;;;;;;14.90;3.70;;;9.40;99.90;;;;;;5053685;28;20694;-81
2021/03/15 04:41:15;;;;;;;22.50;3.83;;;9.40;99.90;;;;;;5053737;28;20257;-82
2021/03/15 04:43:42;;;;;;;17.57;3.80;;;9.50;99.90;;;;;;5053914;28;20670;-81
2021/03/15 04:46:10;;;;;;;19.43;4.60;;;9.50;99.90;;;;;;5053683;28;20235;-81
2021/03/15 04:48:37;;;;;;;19.23;3.97;;;9.50;99.90;;;;;;5040968;28;20257;-82
2021/03/15 04:51:07;;;;;;;19.60;4.63;;;9.50;99.90;;;;;;5033422;28;20275;-82
2021/03/15 04:53:37;;;;;;;14.90;4.37;;;9.50;99.90;;;;;;5033614;28;20763;-82
2021/03/15 04:56:09;;;;;;;22.30;4.07;;;9.50;99.90;;;;;;5033524;28;20254;-82
2021/03/15 04:58:37;;;;;;;20.53;3.67;;;9.50;99.90;;;;;;5033727;28;20241;-82
2021/03/15 05:01:05;;;;;;;19.47;3.57;;;9.40;99.90;;;;;;5033518;28;20213;-81
2021/03/15 05:03:34;;;;;;;19.70;4.37;;;9.40;99.90;;;;;;5033622;28;20283;-82
2021/03/15 05:06:01;;;;;;;16.07;4.43;;;9.40;99.90;;;;;;5033683;28;20241;-82
2021/03/15 05:08:32;;;;;;;21.43;4.00;;;9.40;99.90;;;;;;5033304;28;20240;-81
2021/03/15 05:11:00;;;;;;;16.87;3.77;;;9.50;99.90;;;;;;5033269;28;20286;-82
2021/03/15 05:13:27;;;;;;;18.07;3.73;;;9.50;99.90;;;;;;5032988;28;20295;-81
2021/03/15 05:15:54;;;;;;;20.63;4.60;;;9.50;99.90;;;;;;5032408;28;20236;-80
2021/03/15 05:18:23;;;;;;;17.50;3.87;;;9.50;99.90;;;;;;5047982;28;20258;-81
2021/03/15 05:20:51;;;;;;;21.10;3.90;;;9.50;99.90;;;;;;5052844;28;20387;-82
2021/03/15 05:23:18;;;;;;;21.80;3.90;;;9.50;99.90;;;;;;5041539;28;20306;-81
2021/03/15 05:25:50;;;;;;;19.80;3.63;;;9.50;99.90;;;;;;5033235;28;20648;-82
2021/03/15 05:28:17;;;;;;;20.27;5.10;;;9.60;99.90;;;;;;5032687;28;20236;-82
2021/03/15 05:30:46;;;;;;;19.60;3.27;;;9.50;99.90;;;;;;5040376;28;20240;-82
2021/03/15 05:33:14;;;;;;;19.33;4.03;;;9.60;99.90;;;;;;5047837;28;20228;-82
2021/03/15 05:35:43;;;;;;;20.10;3.77;;;9.60;99.90;;;;;;5047529;28;20231;-82
2021/03/15 05:38:10;;;;;;;18.43;3.50;;;9.60;99.90;;;;;;5052482;28;20244;-82
2021/03/15 05:40:38;;;;;;;21.10;3.70;;;9.60;99.90;;;;;;5052582;28;20250;-82
2021/03/15 05:43:42;;;;;;;18.33;3.40;;;9.60;99.90;;;;;;5052423;28;20251;-82
2021/03/15 05:46:51;;;;;;;21.53;3.67;;;9.60;99.90;;;;;;5044974;28;20199;-81
2021/03/15 05:49:54;;;;;;;15.20;3.47;;;9.60;99.90;;;;;;5052050;28;20245;-81
2021/03/15 05:52:37;;;;;;;21.97;3.60;;;9.60;99.90;;;;;;4971610;28;20202;-82
2021/03/15 05:55:35;;;;;;;17.07;3.60;;;9.60;99.90;;;;;;4971740;28;20635;-81
2021/03/15 05:58:26;;;;;;;19.67;3.50;;;9.60;99.90;;;;;;4970797;28;20244;-81
2021/03/15 06:01:11;;;;;;;14.57;3.37;;;9.60;99.90;;;;;;4962731;28;20294;-81
2021/03/15 06:04:02;;;;;;;16.47;2.80;;;9.70;99.90;;;;;;4971094;28;20293;-81
2021/03/15 06:06:37;;;;;;;17.80;3.00;;;9.70;99.90;;;;;;4955485;28;20582;-79
2021/03/15 06:09:04;;;;;;;17.97;3.70;;;9.70;99.90;;;;;;4952126;29;20202;-81
2021/03/15 06:11:39;;;;;;;18.93;3.23;;;9.70;99.90;;;;;;4956598;28;20194;-81
2021/03/15 06:14:07;;;;;;;17.47;3.07;;;9.70;99.90;;;;;;4971356;28;20696;-81
2021/03/15 06:16:36;;;;;;;16.50;3.37;;;9.70;99.90;;;;;;4952019;28;20297;-81
2021/03/15 06:19:02;;;;;;;15.87;2.83;;;9.70;99.90;;;;;;4951710;29;20710;-78
2021/03/15 06:21:30;;;;;;;13.47;2.97;;;9.70;99.90;;;;;;4952729;28;20241;-80
2021/03/15 06:24:00;;;;;;;19.07;2.70;;;9.70;99.90;;;;;;4970898;28;20248;-80
2021/03/15 06:26:27;;;;;;;20.00;3.53;;;9.70;99.90;;;;;;4954733;28;20257;-81
2021/03/15 06:28:55;;;;;;;14.73;3.27;;;9.70;99.90;;;;;;4993615;28;20653;-79
2021/03/15 06:31:22;;;;;;;12.03;2.60;;;9.70;99.90;;;;;;5051174;28;20322;-82
2021/03/15 06:33:50;;;;;;;17.40;2.60;;;9.70;99.90;;;;;;5049977;28;20234;-81
2021/03/15 06:36:17;;;;;;;11.70;2.33;;;9.70;99.90;;;;;;5050969;28;20242;-81
2021/03/15 06:38:44;;;;;;;16.03;3.20;;;9.80;99.90;;;;;;5050899;28;20208;-81
2021/03/15 06:41:11;;;;;;;17.47;3.27;;;9.80;99.90;;;;;;5051661;28;20310;-81
2021/03/15 06:43:40;;;;;;;14.97;2.80;;;9.80;99.90;;;;;;5066502;28;20255;-81
2021/03/15 06:46:07;;;;;;;16.67;3.00;;;9.80;99.90;;;;;;5044215;28;20291;-82
2021/03/15 06:48:33;;;;;;;12.30;2.53;;;9.80;99.90;;;;;;5049649;28;20227;-80
2021/03/15 06:51:01;;;;;;;22.63;2.90;;;9.80;99.90;;;;;;5042498;28;20236;-82
2021/03/15 06:53:37;;;;;;;18.93;2.43;;;9.80;99.90;;;;;;5052589;28;20235;-81
2021/03/15 06:56:10;;;;;;;16.77;2.60;;;9.80;99.90;;;;;;5045765;28;20238;-81
2021/03/15 06:58:37;;;;;;;15.07;2.97;;;9.80;99.90;;;;;;5054762;28;20243;-81
2021/03/15 07:01:15;;;;;;;21.27;3.23;;;9.80;99.90;;;;;;5051193;28;20662;-81
2021/03/15 07:03:42;;;;;;;13.97;2.63;;;9.90;99.90;;;;;;5047342;28;20951;-82
2021/03/15 07:06:11;;;;;;;16.00;2.60;;;9.90;99.90;;;;;;5040243;28;20203;-81
2021/03/15 07:08:37;;;;;;;16.50;3.07;;;9.90;99.90;;;;;;5052869;28;20246;-81
2021/03/15 07:11:04;;;;;;;11.87;2.63;;;9.90;99.90;;;;;;5046610;28;20246;-81
2021/03/15 07:13:37;;;;;;;21.57;3.37;;;9.90;99.90;;;;;;5049522;28;20732;-82
2021/03/15 07:16:04;;;;;;;12.07;2.77;;;9.90;99.90;;;;;;5052171;28;20196;-82
2021/03/15 07:18:33;;;;;;;15.40;2.83;;;9.90;99.90;;;;;;5044233;28;20219;-81
2021/03/15 07:21:01;;;;;;;12.63;2.90;;;9.90;99.90;;;;;;5039619;28;20326;-81
2021/03/15 07:23:42;;;;;;;13.90;3.17;;;10.00;99.90;;;;;;5050626;28;20369;-84
2021/03/15 07:26:13;;;;;;;19.03;3.37;;;10.00;99.90;;;;;;5041424;28;20684;-83
2021/03/15 07:28:40;;;;;;;16.63;3.23;;;10.00;99.90;;;;;;5041659;28;20204;-84
2021/03/15 07:31:22;;;;;;;14.53;3.23;;;10.00;99.90;;;;;;5042547;28;20686;-84
2021/03/15 07:34:09;;;;;;;14.83;2.80;;;10.00;99.90;;;;;;5046645;28;20627;-84
2021/03/15 07:36:46;;;;;;;14.20;2.90;;;10.10;99.90;;;;;;5042115;28;20200;-83
2021/03/15 07:39:14;;;;;;;19.20;3.03;;;10.10;99.90;;;;;;5050553;28;20214;-83
2021/03/15 07:41:44;;;;;;;18.63;3.60;;;10.10;99.90;;;;;;5051590;28;20255;-83
2021/03/15 07:44:23;;;;;;;16.17;3.17;;;10.20;99.90;;;;;;5048848;28;20229;-84
2021/03/15 07:46:52;;;;;;;15.03;2.90;;;10.20;99.90;;;;;;5055444;28;20203;-84
2021/03/15 07:49:30;;;;;;;16.80;3.07;;;10.30;99.90;;;;;;5055750;28;20215;-83
2021/03/15 07:52:00;;;;;;;15.53;2.87;;;10.30;99.90;;;;;;5047155;28;20702;-83
2021/03/15 07:54:30;;;;;;;16.13;3.73;;;10.40;99.90;;;;;;5031991;28;20258;-83
2021/03/15 07:57:28;;;;;;;16.83;3.57;;;10.40;99.90;;;;;;5040896;28;20232;-83
2021/03/15 07:59:56;;;;;;;16.57;2.90;;;10.40;99.90;;;;;;4981640;28;20203;-82
2021/03/15 08:02:24;;;;;;;15.33;3.00;;;10.50;99.90;;;;;;4987074;28;20249;-82
2021/03/15 08:04:52;;;;;;;16.23;3.10;;;10.50;99.90;;;;;;4982866;28;20298;-83
2021/03/15 08:07:23;;;;;;;15.83;3.20;;;10.50;99.90;;;;;;4979086;28;20744;-83
2021/03/15 08:09:52;;;;;;;17.90;3.30;;;10.50;99.90;;;;;;4978220;28;20245;-83
2021/03/15 08:12:22;;;;;;;19.63;3.37;;;10.50;99.90;;;;;;4979680;28;20252;-83
2021/03/15 08:14:58;;;;;;;15.20;3.70;;;10.60;99.90;;;;;;4982558;28;20240;-83
2021/03/15 08:17:26;;;;;;;15.43;3.43;;;10.60;99.90;;;;;;4986134;28;20259;-83
2021/03/15 08:19:54;;;;;;;18.03;3.40;;;10.70;99.90;;;;;;4983553;28;20651;-82
2021/03/15 08:22:27;;;;;;;14.10;3.40;;;10.60;99.90;;;;;;4960494;28;20249;-83
2021/03/15 08:24:57;;;;;;;18.80;3.40;;;10.60;99.90;;;;;;4985256;28;20241;-83
2021/03/15 08:27:27;;;;;;;16.33;3.43;;;10.60;99.90;;;;;;4982168;28;20209;-82
2021/03/15 08:29:56;;;;;;;13.87;3.43;;;10.70;99.90;;;;;;4985512;28;20289;-83
2021/03/15 08:32:25;;;;;;;21.53;4.13;;;10.70;99.90;;;;;;4983857;28;20198;-83
2021/03/15 08:34:51;;;;;;;19.10;4.10;;;10.70;99.90;;;;;;5045069;28;20201;-82
2021/03/15 08:37:55;;;;;;;24.10;4.80;;;10.70;99.90;;;;;;5042066;28;20227;-83
2021/03/15 08:40:54;;;;;;;18.57;3.80;;;10.70;99.90;;;;;;5038146;28;20211;-83
2021/03/15 08:43:39;;;;;;;17.53;3.53;;;10.90;99.90;;;;;;5046443;28;20711;-83
2021/03/15 08:46:10;;;;;;;18.30;4.10;;;11.00;99.90;;;;;;5043284;28;20279;-83
2021/03/15 08:49:00;;;;;;;15.07;3.73;;;11.00;99.90;;;;;;5043272;28;20545;-83
2021/03/15 08:51:47;;;;;;;19.80;4.27;;;11.00;99.90;;;;;;5043578;28;20205;-83
2021/03/15 08:54:34;;;;;;;21.83;3.97;;;11.10;99.90;;;;;;5047224;28;20696;-83
2021/03/15 08:57:01;;;;;;;20.70;4.67;;;11.00;99.90;;;;;;5050677;28;20207;-83
2021/03/15 08:59:32;;;;;;;19.60;4.33;;;11.10;99.90;;;;;;5052864;28;20598;-83
2021/03/15 09:02:03;;;;;;;19.73;4.10;;;11.10;99.90;;;;;;5047758;28;20208;-84
2021/03/15 09:04:53;;;;;;;19.37;3.93;;;11.10;99.90;;;;;;5041312;28;20205;-83
2021/03/15 09:07:30;;;;;;;17.03;3.80;;;11.10;99.90;;;;;;5046565;28;20231;-82
2021/03/15 09:09:56;;;;;;;20.33;4.33;;;11.10;99.90;;;;;;5050272;28;20269;-83
2021/03/15 09:12:24;;;;;;;23.90;4.60;;;11.30;99.90;;;;;;5046445;28;20600;-83
2021/03/15 09:14:55;;;;;;;17.37;4.07;;;11.20;99.90;;;;;;5026143;28;20236;-83
2021/03/15 09:17:34;;;;;;;14.03;4.07;;;11.10;99.90;;;;;;5040289;28;20291;-83
2021/03/15 09:20:19;;;;;;;18.57;4.10;;;11.20;99.90;;;;;;5042564;28;20696;-82
2021/03/15 09:22:46;;;;;;;18.37;3.80;;;11.30;99.90;;;;;;5045191;28;20224;-82
2021/03/15 09:25:21;;;;;;;13.53;4.00;;;11.20;99.90;;;;;;5037347;28;20203;-83
2021/03/15 09:27:55;;;;;;;17.17;4.23;;;11.10;99.90;;;;;;5041590;28;20212;-83
2021/03/15 09:30:26;;;;;;;13.97;4.07;;;11.10;99.90;;;;;;5044006;28;21661;-82
2021/03/15 09:32:57;;;;;;;15.10;4.00;;;11.20;99.90;;;;;;5042915;28;20199;-83
2021/03/15 09:35:29;;;;;;;19.17;3.50;;;11.10;99.90;;;;;;5047209;28;20611;-83
2021/03/15 09:37:58;;;;;;;14.47;4.47;;;11.20;99.90;;;;;;5044579;28;20237;-82
2021/03/15 09:40:27;;;;;;;15.33;4.17;;;11.20;99.90;;;;;;5045206;28;20241;-82
2021/03/15 09:43:37;;;;;;;19.63;4.00;;;11.30;99.90;;;;;;5040333;28;20222;-82
2021/03/15 09:46:09;;;;;;;15.87;3.60;;;11.20;99.90;;;;;;5046695;28;20206;-82
2021/03/15 09:48:36;;;;;;;16.63;3.87;;;11.00;99.90;;;;;;5040570;28;20209;-82
2021/03/15 09:51:04;;;;;;;20.73;4.63;;;11.00;99.90;;;;;;5048631;28;20285;-82
2021/03/15 09:53:30;;;;;;;17.27;4.13;;;11.10;99.90;;;;;;5044649;28;20929;-82
2021/03/15 09:56:04;;;;;;;19.50;4.17;;;11.10;99.90;;;;;;5048294;28;20207;-83
2021/03/15 09:58:31;;;;;;;16.53;4.20;;;11.20;99.90;;;;;;5055865;28;20209;-84
2021/03/15 10:00:57;;;;;;;17.93;4.40;;;11.10;99.90;;;;;;5052022;28;20231;-84
2021/03/15 10:03:27;;;;;;;16.47;4.87;;;11.20;99.90;;;;;;5045433;28;20594;-84
2021/03/15 10:05:55;;;;;;;16.00;4.27;;;11.30;99.90;;;;;;5041460;28;20227;-85
2021/03/15 10:08:22;;;;;;;15.10;4.13;;;11.20;99.90;;;;;;5044170;28;20241;-84
2021/03/15 10:10:48;;;;;;;20.83;4.57;;;11.00;99.90;;;;;;5051479;28;20203;-84
2021/03/15 10:13:20;;;;;;;17.33;4.20;;;10.90;99.90;;;;;;5046503;28;20232;-84
2021/03/15 10:15:47;;;;;;;14.37;4.37;;;11.00;99.90;;;;;;5029870;28;20230;-84
2021/03/15 10:18:17;;;;;;;15.03;4.13;;;11.20;99.90;;;;;;5046008;28;20372;-84
2021/03/15 10:20:45;;;;;;;18.60;4.20;;;11.30;99.90;;;;;;5047075;28;20274;-84
2021/03/15 10:23:13;;;;;;;18.03;4.50;;;11.40;99.90;;;;;;5042489;28;20669;-84
2021/03/15 10:25:40;;;;;;;15.37;4.53;;;11.40;99.90;;;;;;5044609;28;20234;-84
2021/03/15 10:28:07;;;;;;;16.43;4.53;;;11.60;99.90;;;;;;5046293;28;20239;-82
2021/03/15 10:30:35;;;;;;;15.60;4.23;;;11.60;99.90;;;;;;5041956;28;20188;-84
2021/03/15 10:33:03;;;;;;;14.57;4.30;;;11.70;99.90;;;;;;5046430;28;20247;-83
2021/03/15 10:35:31;;;;;;;17.30;4.67;;;12.20;99.90;;;;;;5050466;28;20227;-82
2021/03/15 10:38:15;;;;;;;15.77;4.20;;;12.30;99.90;;;;;;5049866;28;20199;-81
2021/03/15 10:40:51;;;;;;;24.17;4.67;;;12.20;99.90;;;;;;5040499;28;20199;-82
2021/03/15 10:43:19;;;;;;;17.17;4.70;;;12.30;99.90;;;;;;5044301;28;20253;-85
2021/03/15 10:45:46;;;;;;;17.03;4.37;;;12.40;99.90;;;;;;5057240;28;20257;-81
2021/03/15 10:48:13;;;;;;;15.43;3.70;;;12.30;99.90;;;;;;5034267;28;20204;-82
2021/03/15 10:50:42;;;;;;;17.07;4.27;;;12.50;99.90;;;;;;5038491;28;20234;-82
2021/03/15 10:53:12;;;;;;;18.07;4.60;;;12.40;99.90;;;;;;5051038;28;20192;-82
2021/03/15 10:55:40;;;;;;;15.47;3.93;;;12.40;99.90;;;;;;5050258;28;20232;-82
2021/03/15 10:58:09;;;;;;;14.90;3.67;;;12.40;99.90;;;;;;5056872;28;20199;-82
2021/03/15 11:00:37;;;;;;;14.87;3.90;;;12.20;99.90;;;;;;5053749;28;20203;-82
2021/03/15 11:03:05;;;;;;;17.57;3.93;;;12.10;99.90;;;;;;5047218;28;20680;-82
2021/03/15 11:05:31;;;;;;;19.43;4.40;;;12.10;99.90;;;;;;5042486;28;20203;-82
2021/03/15 11:07:58;;;;;;;13.63;4.03;;;12.00;99.90;;;;;;5039751;28;20258;-82
2021/03/15 11:10:30;;;;;;;12.30;4.00;;;11.90;99.90;;;;;;5039281;28;20235;-81
2021/03/15 11:12:59;;;;;;;15.07;4.60;;;11.70;99.90;;;;;;5053587;28;20689;-81
2021/03/15 11:15:32;;;;;;;16.73;3.73;;;11.60;99.90;;;;;;5065178;28;20195;-82
2021/03/15 11:18:05;;;;;;;14.90;4.17;;;11.60;99.90;;;;;;5058973;28;20227;-82
2021/03/15 11:20:41;;;;;;;10.07;3.83;;;11.70;99.90;;;;;;5043327;28;20304;-82
2021/03/15 11:23:39;;;;;;;16.63;3.70;;;11.80;99.90;;;;;;5044299;28;20727;-82
2021/03/15 11:26:43;;;;;;;12.33;3.60;;;11.90;99.90;;;;;;5045239;28;20290;-82
2021/03/15 11:29:12;;;;;;;16.03;3.60;;;12.00;99.90;;;;;;5045359;28;20208;-82
2021/03/15 11:31:47;;;;;;;15.00;4.10;;;12.20;99.90;;;;;;5050354;28;20748;-83
2021/03/15 11:34:20;;;;;;;15.87;3.77;;;12.30;99.90;;;;;;5047781;28;20223;-82
2021/03/15 11:36:47;;;;;;;10.80;3.13;;;12.20;99.90;;;;;;5051094;28;20271;-81
2021/03/15 11:39:16;;;;;;;8.53;3.10;;;12.40;99.90;;;;;;5052289;28;20565;-82
2021/03/15 11:41:44;;;;;;;10.20;2.93;;;12.50;99.90;;;;;;5053004;28;20223;-82
2021/03/15 11:44:12;;;;;;;14.23;3.70;;;12.60;99.90;;;;;;5050802;28;20222;-82
2021/03/15 11:46:40;;;;;;;15.30;3.50;;;12.60;99.90;;;;;;5044324;28;20242;-82
2021/03/15 11:49:06;;;;;;;12.10;3.60;;;12.50;99.90;;;;;;5040174;28;20204;-81
2021/03/15 11:51:33;;;;;;;11.30;3.37;;;12.70;99.90;;;;;;5047128;28;20231;-82
2021/03/15 11:53:59;;;;;;;13.20;3.50;;;13.00;99.90;;;;;;5043010;28;20275;-82
2021/03/15 11:56:25;;;;;;;13.37;3.67;;;13.30;99.90;;;;;;5047243;28;20218;-82
2021/03/15 11:58:52;;;;;;;11.90;3.00;;;13.20;99.90;;;;;;5043425;28;20243;-80
2021/03/15 12:01:19;;;;;;;13.60;4.20;;;13.30;99.90;;;;;;5040222;28;21694;-81
2021/03/15 12:03:46;;;;;;;15.40;3.43;;;13.10;99.90;;;;;;5042616;28;20732;-81
2021/03/15 12:06:13;;;;;;;13.10;3.63;;;13.30;99.90;;;;;;5043159;28;20196;-81
2021/03/15 12:08:40;;;;;;;11.17;3.20;;;13.60;99.90;;;;;;5047378;28;20196;-81
2021/03/15 12:11:07;;;;;;;12.97;2.97;;;13.40;99.90;;;;;;5042401;28;20244;-81
2021/03/15 12:13:33;;;;;;;10.80;3.37;;;13.10;99.90;;;;;;5051163;28;20231;-82
2021/03/15 12:16:00;;;;;;;12.37;3.37;;;12.90;99.90;;;;;;5042025;28;20234;-81
2021/03/15 12:18:28;;;;;;;12.70;3.47;;;13.20;99.90;;;;;;5041350;28;20228;-83
2021/03/15 12:20:54;;;;;;;12.97;3.23;;;13.50;99.90;;;;;;5047494;28;20743;-82
2021/03/15 12:23:21;;;;;;;13.07;3.37;;;13.30;99.90;;;;;;5038507;28;20264;-82
2021/03/15 12:25:47;;;;;;;13.03;3.47;;;13.00;99.90;;;;;;5044770;28;20302;-81
2021/03/15 12:28:15;;;;;;;9.27;3.30;;;13.00;99.90;;;;;;5043675;28;20676;-82
2021/03/15 12:30:41;;;;;;;11.70;2.60;;;13.20;99.90;;;;;;5050798;28;20195;-81
2021/03/15 12:33:08;;;;;;;12.17;2.87;;;13.30;99.90;;;;;;5048868;28;20223;-82
2021/03/15 12:35:37;;;;;;;10.73;2.97;;;13.10;99.90;;;;;;5048178;28;20230;-82
2021/03/15 12:38:03;;;;;;;9.23;3.23;;;13.00;99.90;;;;;;5047120;28;20668;-81
2021/03/15 12:40:34;;;;;;;10.60;2.70;;;13.10;99.90;;;;;;5044648;28;20244;-81
2021/03/15 12:43:01;;;;;;;15.37;4.20;;;13.20;99.90;;;;;;5014996;28;20277;-81
2021/03/15 12:45:27;;;;;;;12.63;3.20;;;13.20;99.90;;;;;;5053087;28;20832;-81
2021/03/15 12:47:53;;;;;;;12.33;3.00;;;13.40;99.90;;;;;;5044648;28;20223;-81
2021/03/15 12:50:20;;;;;;;10.73;3.13;;;13.30;99.90;;;;;;5048723;28;20236;-80
2021/03/15 12:52:48;;;;;;;11.17;3.23;;;13.20;99.90;;;;;;5050145;28;20663;-81
2021/03/15 12:55:16;;;;;;;11.77;3.13;;;12.90;99.90;;;;;;5039442;28;20230;-81
2021/03/15 12:57:43;;;;;;;12.17;3.57;;;12.90;99.90;;;;;;5054429;28;20257;-83
2021/03/15 13:00:12;;;;;;;12.37;3.23;;;12.90;99.90;;;;;;5043208;28;20227;-80
2021/03/15 13:02:38;;;;;;;11.33;3.13;;;13.00;99.90;;;;;;5035042;28;20224;-85